Turnpike, Connecticut
Current Conditions -  °F | °C
As of 8:53 PM on Friday 21 Nov 2014 (Local Time) from KHFD Reporting Station
Clear Clear  
Wind Chill: 19°   Ceiling: Unl
Heat Index: 28°   Visibility: 10mi
Dew Point:   Wind: 9mph
Humidity: 45%   Direction: 320°NW
Pressure: 30.46"   Gusts: NA
Location:  41.837°N, 72.4608°W
Report Text: KHFD 220153Z 32008KT 10SM CLR M02/M13 A3046 RMK AO2 SLP314 T10221128
Loading
Personal Weather Stations






























Interactive Weather Map New forecast layout! Learn more

10-Day Weather Forecast

Advertisements
Track Severe Weather on mobile